sensor_id;sensor_type;location;lat;lon;timestamp;P1;durP1;ratioP1;P2;durP2;ratioP2
4553;SDS011;2289;48.316;15.174;2023-06-22T00:00:43;34.87;;;6.70;;
4553;SDS011;2289;48.316;15.174;2023-06-22T00:03:12;15.50;;;6.00;;
4553;SDS011;2289;48.316;15.174;2023-06-22T00:05:41;21.63;;;5.53;;
4553;SDS011;2289;48.316;15.174;2023-06-22T00:08:10;14.23;;;5.47;;
4553;SDS011;2289;48.316;15.174;2023-06-22T00:10:39;18.73;;;4.97;;
4553;SDS011;2289;48.316;15.174;2023-06-22T00:13:08;14.67;;;6.57;;
4553;SDS011;2289;48.316;15.174;2023-06-22T00:15:38;17.57;;;5.63;;
4553;SDS011;2289;48.316;15.174;2023-06-22T00:18:10;10.60;;;5.13;;
4553;SDS011;2289;48.316;15.174;2023-06-22T00:20:41;7.37;;;5.57;;
4553;SDS011;2289;48.316;15.174;2023-06-22T00:23:10;10.27;;;5.53;;
4553;SDS011;2289;48.316;15.174;2023-06-22T00:25:43;11.73;;;5.50;;
4553;SDS011;2289;48.316;15.174;2023-06-22T00:28:12;9.37;;;5.00;;
4553;SDS011;2289;48.316;15.174;2023-06-22T00:30:41;14.07;;;5.73;;
4553;SDS011;2289;48.316;15.174;2023-06-22T00:33:12;12.07;;;5.30;;
4553;SDS011;2289;48.316;15.174;2023-06-22T00:35:43;8.77;;;4.80;;
4553;SDS011;2289;48.316;15.174;2023-06-22T00:38:12;11.70;;;5.00;;
4553;SDS011;2289;48.316;15.174;2023-06-22T00:40:41;9.33;;;4.40;;
4553;SDS011;2289;48.316;15.174;2023-06-22T00:43:10;13.60;;;5.23;;
4553;SDS011;2289;48.316;15.174;2023-06-22T00:45:39;10.87;;;4.80;;
4553;SDS011;2289;48.316;15.174;2023-06-22T00:48:07;11.20;;;4.77;;
4553;SDS011;2289;48.316;15.174;2023-06-22T00:50:38;7.73;;;4.70;;
4553;SDS011;2289;48.316;15.174;2023-06-22T00:53:08;7.40;;;4.43;;
4553;SDS011;2289;48.316;15.174;2023-06-22T00:55:38;11.00;;;4.43;;
4553;SDS011;2289;48.316;15.174;2023-06-22T00:58:11;8.13;;;5.00;;
4553;SDS011;2289;48.316;15.174;2023-06-22T01:00:40;6.67;;;5.00;;
4553;SDS011;2289;48.316;15.174;2023-06-22T01:03:09;10.73;;;5.30;;
4553;SDS011;2289;48.316;15.174;2023-06-22T01:05:40;9.40;;;4.27;;
4553;SDS011;2289;48.316;15.174;2023-06-22T01:08:12;10.60;;;5.50;;
4553;SDS011;2289;48.316;15.174;2023-06-22T01:10:48;7.27;;;4.53;;
4553;SDS011;2289;48.316;15.174;2023-06-22T01:13:23;9.30;;;4.80;;
4553;SDS011;2289;48.316;15.174;2023-06-22T01:15:57;7.40;;;4.50;;
4553;SDS011;2289;48.316;15.174;2023-06-22T01:18:30;10.80;;;4.30;;
4553;SDS011;2289;48.316;15.174;2023-06-22T01:21:02;9.67;;;5.50;;
4553;SDS011;2289;48.316;15.174;2023-06-22T01:23:42;6.97;;;4.10;;
4553;SDS011;2289;48.316;15.174;2023-06-22T01:26:22;9.47;;;4.30;;
4553;SDS011;2289;48.316;15.174;2023-06-22T01:28:58;8.63;;;4.13;;
4553;SDS011;2289;48.316;15.174;2023-06-22T01:31:27;7.77;;;4.37;;
4553;SDS011;2289;48.316;15.174;2023-06-22T01:33:59;7.23;;;4.57;;
4553;SDS011;2289;48.316;15.174;2023-06-22T01:36:31;8.97;;;5.00;;
4553;SDS011;2289;48.316;15.174;2023-06-22T01:39:00;10.10;;;4.60;;
4553;SDS011;2289;48.316;15.174;2023-06-22T01:45:23;15.80;;;4.63;;
4553;SDS011;2289;48.316;15.174;2023-06-22T01:47:53;8.47;;;4.60;;
4553;SDS011;2289;48.316;15.174;2023-06-22T01:50:22;6.77;;;4.53;;
4553;SDS011;2289;48.316;15.174;2023-06-22T01:52:50;11.97;;;5.33;;
4553;SDS011;2289;48.316;15.174;2023-06-22T01:55:19;6.30;;;4.50;;
4553;SDS011;2289;48.316;15.174;2023-06-22T01:57:48;12.63;;;5.87;;
4553;SDS011;2289;48.316;15.174;2023-06-22T02:00:18;7.37;;;3.93;;
4553;SDS011;2289;48.316;15.174;2023-06-22T02:02:52;8.27;;;4.40;;
4553;SDS011;2289;48.316;15.174;2023-06-22T02:05:23;8.07;;;4.00;;
4553;SDS011;2289;48.316;15.174;2023-06-22T02:07:56;6.90;;;4.60;;
4553;SDS011;2289;48.316;15.174;2023-06-22T02:10:29;7.03;;;4.37;;
4553;SDS011;2289;48.316;15.174;2023-06-22T02:12:58;8.33;;;4.03;;
4553;SDS011;2289;48.316;15.174;2023-06-22T02:15:27;8.20;;;5.67;;
4553;SDS011;2289;48.316;15.174;2023-06-22T02:17:58;8.60;;;4.53;;
4553;SDS011;2289;48.316;15.174;2023-06-22T02:20:26;10.13;;;5.97;;
4553;SDS011;2289;48.316;15.174;2023-06-22T02:22:56;9.27;;;4.10;;
4553;SDS011;2289;48.316;15.174;2023-06-22T02:25:24;6.07;;;3.80;;
4553;SDS011;2289;48.316;15.174;2023-06-22T02:27:54;13.30;;;4.97;;
4553;SDS011;2289;48.316;15.174;2023-06-22T02:30:22;7.53;;;4.20;;
4553;SDS011;2289;48.316;15.174;2023-06-22T02:32:51;8.37;;;4.30;;
4553;SDS011;2289;48.316;15.174;2023-06-22T02:35:27;7.53;;;4.03;;
4553;SDS011;2289;48.316;15.174;2023-06-22T02:37:58;8.03;;;4.40;;
4553;SDS011;2289;48.316;15.174;2023-06-22T02:40:28;7.10;;;4.13;;
4553;SDS011;2289;48.316;15.174;2023-06-22T02:42:58;12.17;;;4.90;;
4553;SDS011;2289;48.316;15.174;2023-06-22T02:45:30;16.03;;;5.20;;
4553;SDS011;2289;48.316;15.174;2023-06-22T02:48:03;7.87;;;4.80;;
4553;SDS011;2289;48.316;15.174;2023-06-22T02:50:34;9.00;;;4.50;;
4553;SDS011;2289;48.316;15.174;2023-06-22T02:53:03;14.63;;;4.80;;
4553;SDS011;2289;48.316;15.174;2023-06-22T02:55:32;10.63;;;5.10;;
4553;SDS011;2289;48.316;15.174;2023-06-22T02:58:01;9.17;;;4.73;;
4553;SDS011;2289;48.316;15.174;2023-06-22T03:00:31;6.43;;;3.50;;
4553;SDS011;2289;48.316;15.174;2023-06-22T03:03:01;9.70;;;4.27;;
4553;SDS011;2289;48.316;15.174;2023-06-22T03:05:30;9.70;;;4.37;;
4553;SDS011;2289;48.316;15.174;2023-06-22T03:08:01;9.70;;;4.20;;
4553;SDS011;2289;48.316;15.174;2023-06-22T03:10:29;10.03;;;4.60;;
4553;SDS011;2289;48.316;15.174;2023-06-22T03:12:58;7.67;;;4.47;;
4553;SDS011;2289;48.316;15.174;2023-06-22T03:15:27;16.37;;;5.43;;
4553;SDS011;2289;48.316;15.174;2023-06-22T03:17:58;9.70;;;4.70;;
4553;SDS011;2289;48.316;15.174;2023-06-22T03:20:27;8.47;;;4.67;;
4553;SDS011;2289;48.316;15.174;2023-06-22T03:23:01;5.70;;;4.03;;
4553;SDS011;2289;48.316;15.174;2023-06-22T03:25:30;7.00;;;4.40;;
4553;SDS011;2289;48.316;15.174;2023-06-22T03:28:00;5.97;;;4.73;;
4553;SDS011;2289;48.316;15.174;2023-06-22T03:30:29;14.17;;;4.73;;
4553;SDS011;2289;48.316;15.174;2023-06-22T03:32:58;8.03;;;4.87;;
4553;SDS011;2289;48.316;15.174;2023-06-22T03:35:27;6.40;;;4.70;;
4553;SDS011;2289;48.316;15.174;2023-06-22T03:37:56;15.53;;;5.33;;
4553;SDS011;2289;48.316;15.174;2023-06-22T03:40:26;11.70;;;4.47;;
4553;SDS011;2289;48.316;15.174;2023-06-22T03:42:55;9.70;;;5.20;;
4553;SDS011;2289;48.316;15.174;2023-06-22T03:45:24;8.73;;;5.87;;
4553;SDS011;2289;48.316;15.174;2023-06-22T03:47:52;8.30;;;4.83;;
4553;SDS011;2289;48.316;15.174;2023-06-22T03:50:21;11.60;;;4.90;;
4553;SDS011;2289;48.316;15.174;2023-06-22T03:52:50;6.00;;;3.53;;
4553;SDS011;2289;48.316;15.174;2023-06-22T03:55:19;5.80;;;4.80;;
4553;SDS011;2289;48.316;15.174;2023-06-22T03:57:49;7.40;;;4.10;;
4553;SDS011;2289;48.316;15.174;2023-06-22T04:00:20;10.47;;;4.13;;
4553;SDS011;2289;48.316;15.174;2023-06-22T04:02:48;6.90;;;4.37;;
4553;SDS011;2289;48.316;15.174;2023-06-22T04:05:18;7.70;;;3.90;;
4553;SDS011;2289;48.316;15.174;2023-06-22T04:07:46;6.73;;;3.50;;
4553;SDS011;2289;48.316;15.174;2023-06-22T04:10:15;10.97;;;3.70;;
4553;SDS011;2289;48.316;15.174;2023-06-22T04:12:44;6.67;;;4.73;;
4553;SDS011;2289;48.316;15.174;2023-06-22T04:15:14;10.47;;;4.30;;
4553;SDS011;2289;48.316;15.174;2023-06-22T04:17:43;10.80;;;4.70;;
4553;SDS011;2289;48.316;15.174;2023-06-22T04:20:13;7.13;;;5.03;;
4553;SDS011;2289;48.316;15.174;2023-06-22T04:22:41;9.40;;;5.00;;
4553;SDS011;2289;48.316;15.174;2023-06-22T04:25:10;7.10;;;4.67;;
4553;SDS011;2289;48.316;15.174;2023-06-22T04:27:39;8.10;;;4.50;;
4553;SDS011;2289;48.316;15.174;2023-06-22T04:30:08;7.90;;;4.73;;
4553;SDS011;2289;48.316;15.174;2023-06-22T04:32:39;16.30;;;5.27;;
4553;SDS011;2289;48.316;15.174;2023-06-22T04:35:08;9.80;;;6.10;;
4553;SDS011;2289;48.316;15.174;2023-06-22T04:37:37;4.90;;;4.40;;
4553;SDS011;2289;48.316;15.174;2023-06-22T04:40:07;12.57;;;4.47;;
4553;SDS011;2289;48.316;15.174;2023-06-22T04:42:37;6.07;;;3.93;;
4553;SDS011;2289;48.316;15.174;2023-06-22T04:45:07;6.43;;;3.97;;
4553;SDS011;2289;48.316;15.174;2023-06-22T04:47:39;7.80;;;4.60;;
4553;SDS011;2289;48.316;15.174;2023-06-22T04:50:07;8.43;;;4.40;;
4553;SDS011;2289;48.316;15.174;2023-06-22T04:52:37;9.33;;;5.20;;
4553;SDS011;2289;48.316;15.174;2023-06-22T04:55:06;12.10;;;4.83;;
4553;SDS011;2289;48.316;15.174;2023-06-22T04:57:36;5.20;;;3.37;;
4553;SDS011;2289;48.316;15.174;2023-06-22T05:00:06;7.83;;;4.53;;
4553;SDS011;2289;48.316;15.174;2023-06-22T05:02:45;9.07;;;4.93;;
4553;SDS011;2289;48.316;15.174;2023-06-22T05:05:15;9.23;;;4.97;;
4553;SDS011;2289;48.316;15.174;2023-06-22T05:07:45;9.03;;;4.70;;
4553;SDS011;2289;48.316;15.174;2023-06-22T05:10:18;6.43;;;3.80;;
4553;SDS011;2289;48.316;15.174;2023-06-22T05:12:47;8.37;;;4.20;;
4553;SDS011;2289;48.316;15.174;2023-06-22T05:15:16;14.23;;;4.67;;
4553;SDS011;2289;48.316;15.174;2023-06-22T05:17:48;9.63;;;4.90;;
4553;SDS011;2289;48.316;15.174;2023-06-22T05:20:17;9.23;;;4.27;;
4553;SDS011;2289;48.316;15.174;2023-06-22T05:22:48;8.33;;;3.80;;
4553;SDS011;2289;48.316;15.174;2023-06-22T05:25:17;6.67;;;3.93;;
4553;SDS011;2289;48.316;15.174;2023-06-22T05:27:46;9.13;;;4.40;;
4553;SDS011;2289;48.316;15.174;2023-06-22T05:30:14;9.03;;;4.97;;
4553;SDS011;2289;48.316;15.174;2023-06-22T05:32:49;7.53;;;4.90;;
4553;SDS011;2289;48.316;15.174;2023-06-22T05:35:20;8.43;;;4.50;;
4553;SDS011;2289;48.316;15.174;2023-06-22T05:37:49;8.60;;;5.20;;
4553;SDS011;2289;48.316;15.174;2023-06-22T05:40:19;10.33;;;4.07;;
4553;SDS011;2289;48.316;15.174;2023-06-22T05:42:48;20.83;;;5.23;;
4553;SDS011;2289;48.316;15.174;2023-06-22T05:45:17;6.13;;;4.47;;
4553;SDS011;2289;48.316;15.174;2023-06-22T05:47:45;13.13;;;5.40;;
4553;SDS011;2289;48.316;15.174;2023-06-22T05:50:16;9.57;;;5.63;;
4553;SDS011;2289;48.316;15.174;2023-06-22T05:52:44;6.73;;;5.00;;
4553;SDS011;2289;48.316;15.174;2023-06-22T05:55:14;9.80;;;5.83;;
4553;SDS011;2289;48.316;15.174;2023-06-22T05:57:47;7.80;;;4.90;;
4553;SDS011;2289;48.316;15.174;2023-06-22T06:00:16;9.90;;;5.37;;
4553;SDS011;2289;48.316;15.174;2023-06-22T06:02:45;7.03;;;5.57;;
4553;SDS011;2289;48.316;15.174;2023-06-22T06:05:17;10.37;;;5.17;;
4553;SDS011;2289;48.316;15.174;2023-06-22T06:07:46;14.03;;;6.80;;
4553;SDS011;2289;48.316;15.174;2023-06-22T06:10:15;8.50;;;6.63;;
4553;SDS011;2289;48.316;15.174;2023-06-22T06:12:44;7.60;;;4.53;;
4553;SDS011;2289;48.316;15.174;2023-06-22T06:15:12;8.67;;;5.80;;
4553;SDS011;2289;48.316;15.174;2023-06-22T06:17:47;8.60;;;4.27;;
4553;SDS011;2289;48.316;15.174;2023-06-22T06:20:19;8.87;;;5.57;;
4553;SDS011;2289;48.316;15.174;2023-06-22T06:22:49;7.77;;;5.43;;
4553;SDS011;2289;48.316;15.174;2023-06-22T06:25:19;5.63;;;4.40;;
4553;SDS011;2289;48.316;15.174;2023-06-22T06:27:49;9.93;;;5.17;;
4553;SDS011;2289;48.316;15.174;2023-06-22T06:30:18;9.23;;;5.03;;
4553;SDS011;2289;48.316;15.174;2023-06-22T06:32:47;7.93;;;5.90;;
4553;SDS011;2289;48.316;15.174;2023-06-22T06:35:16;7.40;;;6.23;;
4553;SDS011;2289;48.316;15.174;2023-06-22T06:37:47;9.43;;;6.10;;
4553;SDS011;2289;48.316;15.174;2023-06-22T06:40:17;9.77;;;6.13;;
4553;SDS011;2289;48.316;15.174;2023-06-22T06:42:47;10.60;;;6.20;;
4553;SDS011;2289;48.316;15.174;2023-06-22T06:45:17;7.80;;;5.57;;
4553;SDS011;2289;48.316;15.174;2023-06-22T06:47:49;14.20;;;6.20;;
4553;SDS011;2289;48.316;15.174;2023-06-22T06:50:19;10.43;;;5.50;;
4553;SDS011;2289;48.316;15.174;2023-06-22T06:52:50;14.83;;;6.90;;
4553;SDS011;2289;48.316;15.174;2023-06-22T06:55:18;7.40;;;5.50;;
4553;SDS011;2289;48.316;15.174;2023-06-22T06:57:47;8.23;;;6.00;;
4553;SDS011;2289;48.316;15.174;2023-06-22T07:00:17;6.30;;;5.03;;
4553;SDS011;2289;48.316;15.174;2023-06-22T07:02:46;11.23;;;6.17;;
4553;SDS011;2289;48.316;15.174;2023-06-22T07:05:16;8.10;;;7.00;;
4553;SDS011;2289;48.316;15.174;2023-06-22T07:07:44;8.93;;;5.50;;
4553;SDS011;2289;48.316;15.174;2023-06-22T07:10:15;7.27;;;5.40;;
4553;SDS011;2289;48.316;15.174;2023-06-22T07:12:44;12.03;;;6.27;;
4553;SDS011;2289;48.316;15.174;2023-06-22T07:15:13;12.63;;;6.10;;
4553;SDS011;2289;48.316;15.174;2023-06-22T07:17:42;19.50;;;6.83;;
4553;SDS011;2289;48.316;15.174;2023-06-22T07:20:12;7.80;;;6.00;;
4553;SDS011;2289;48.316;15.174;2023-06-22T07:22:43;6.83;;;6.00;;
4553;SDS011;2289;48.316;15.174;2023-06-22T07:25:13;6.57;;;5.80;;
4553;SDS011;2289;48.316;15.174;2023-06-22T07:27:45;9.10;;;6.30;;
4553;SDS011;2289;48.316;15.174;2023-06-22T07:30:14;7.87;;;6.20;;
4553;SDS011;2289;48.316;15.174;2023-06-22T07:32:43;7.30;;;6.57;;
4553;SDS011;2289;48.316;15.174;2023-06-22T07:35:12;10.37;;;7.10;;
4553;SDS011;2289;48.316;15.174;2023-06-22T07:37:43;8.80;;;6.07;;
4553;SDS011;2289;48.316;15.174;2023-06-22T07:40:12;9.80;;;5.67;;
4553;SDS011;2289;48.316;15.174;2023-06-22T07:42:42;10.23;;;7.03;;
4553;SDS011;2289;48.316;15.174;2023-06-22T07:45:15;12.63;;;6.50;;
4553;SDS011;2289;48.316;15.174;2023-06-22T07:47:43;8.03;;;5.13;;
4553;SDS011;2289;48.316;15.174;2023-06-22T07:50:12;6.70;;;5.70;;
4553;SDS011;2289;48.316;15.174;2023-06-22T07:52:42;8.10;;;5.33;;
4553;SDS011;2289;48.316;15.174;2023-06-22T07:55:13;7.60;;;5.67;;
4553;SDS011;2289;48.316;15.174;2023-06-22T07:57:44;11.87;;;5.00;;
4553;SDS011;2289;48.316;15.174;2023-06-22T08:00:14;8.97;;;5.50;;
4553;SDS011;2289;48.316;15.174;2023-06-22T08:02:45;7.03;;;5.30;;
4553;SDS011;2289;48.316;15.174;2023-06-22T08:05:14;9.70;;;5.20;;
4553;SDS011;2289;48.316;15.174;2023-06-22T08:08:01;8.27;;;5.70;;
4553;SDS011;2289;48.316;15.174;2023-06-22T08:10:30;11.17;;;6.57;;
4553;SDS011;2289;48.316;15.174;2023-06-22T08:13:00;9.07;;;5.23;;
4553;SDS011;2289;48.316;15.174;2023-06-22T08:15:29;9.90;;;4.77;;
4553;SDS011;2289;48.316;15.174;2023-06-22T08:18:06;7.50;;;5.50;;
4553;SDS011;2289;48.316;15.174;2023-06-22T08:20:36;12.83;;;5.40;;
4553;SDS011;2289;48.316;15.174;2023-06-22T08:23:05;10.50;;;5.93;;
4553;SDS011;2289;48.316;15.174;2023-06-22T08:25:34;10.33;;;5.37;;
4553;SDS011;2289;48.316;15.174;2023-06-22T08:28:04;10.20;;;6.03;;
4553;SDS011;2289;48.316;15.174;2023-06-22T08:30:34;10.10;;;5.30;;
4553;SDS011;2289;48.316;15.174;2023-06-22T08:33:04;11.63;;;5.83;;
4553;SDS011;2289;48.316;15.174;2023-06-22T08:35:32;6.13;;;5.57;;
4553;SDS011;2289;48.316;15.174;2023-06-22T08:38:01;7.87;;;5.50;;
4553;SDS011;2289;48.316;15.174;2023-06-22T08:40:30;7.33;;;5.77;;
4553;SDS011;2289;48.316;15.174;2023-06-22T08:42:59;11.83;;;5.70;;
4553;SDS011;2289;48.316;15.174;2023-06-22T08:45:33;14.37;;;5.73;;
4553;SDS011;2289;48.316;15.174;2023-06-22T08:48:06;6.20;;;4.73;;
4553;SDS011;2289;48.316;15.174;2023-06-22T08:50:35;10.30;;;6.07;;
4553;SDS011;2289;48.316;15.174;2023-06-22T08:53:04;7.93;;;5.30;;
4553;SDS011;2289;48.316;15.174;2023-06-22T08:55:33;9.63;;;5.37;;
4553;SDS011;2289;48.316;15.174;2023-06-22T08:58:02;7.00;;;5.50;;
4553;SDS011;2289;48.316;15.174;2023-06-22T09:00:35;7.10;;;5.93;;
4553;SDS011;2289;48.316;15.174;2023-06-22T09:03:06;12.87;;;6.10;;
4553;SDS011;2289;48.316;15.174;2023-06-22T09:05:37;11.93;;;5.80;;
4553;SDS011;2289;48.316;15.174;2023-06-22T09:08:06;8.40;;;5.53;;
4553;SDS011;2289;48.316;15.174;2023-06-22T09:10:34;8.13;;;5.17;;
4553;SDS011;2289;48.316;15.174;2023-06-22T09:13:03;6.60;;;5.47;;
4553;SDS011;2289;48.316;15.174;2023-06-22T09:15:35;9.20;;;5.47;;
4553;SDS011;2289;48.316;15.174;2023-06-22T09:18:09;13.83;;;5.60;;
4553;SDS011;2289;48.316;15.174;2023-06-22T09:20:39;9.30;;;7.30;;
4553;SDS011;2289;48.316;15.174;2023-06-22T09:23:08;9.03;;;5.60;;
4553;SDS011;2289;48.316;15.174;2023-06-22T09:25:36;9.00;;;5.80;;
4553;SDS011;2289;48.316;15.174;2023-06-22T09:28:06;9.40;;;5.20;;
4553;SDS011;2289;48.316;15.174;2023-06-22T09:30:36;13.40;;;5.40;;
4553;SDS011;2289;48.316;15.174;2023-06-22T09:33:05;7.17;;;5.87;;
4553;SDS011;2289;48.316;15.174;2023-06-22T09:35:35;7.47;;;6.00;;
4553;SDS011;2289;48.316;15.174;2023-06-22T09:38:03;13.03;;;6.03;;
4553;SDS011;2289;48.316;15.174;2023-06-22T09:40:32;9.70;;;5.87;;
4553;SDS011;2289;48.316;15.174;2023-06-22T09:43:07;7.97;;;5.10;;
4553;SDS011;2289;48.316;15.174;2023-06-22T09:45:40;7.63;;;6.00;;
4553;SDS011;2289;48.316;15.174;2023-06-22T09:48:10;9.77;;;6.00;;
4553;SDS011;2289;48.316;15.174;2023-06-22T09:50:39;10.43;;;6.20;;
4553;SDS011;2289;48.316;15.174;2023-06-22T09:53:08;8.30;;;5.53;;
4553;SDS011;2289;48.316;15.174;2023-06-22T09:55:37;7.53;;;5.40;;
4553;SDS011;2289;48.316;15.174;2023-06-22T09:58:06;8.83;;;5.60;;
4553;SDS011;2289;48.316;15.174;2023-06-22T10:00:35;9.37;;;6.10;;
4553;SDS011;2289;48.316;15.174;2023-06-22T10:03:06;11.77;;;5.80;;
4553;SDS011;2289;48.316;15.174;2023-06-22T10:05:36;10.43;;;5.90;;
4553;SDS011;2289;48.316;15.174;2023-06-22T10:08:05;11.30;;;6.80;;
4553;SDS011;2289;48.316;15.174;2023-06-22T10:10:37;12.50;;;6.57;;
4553;SDS011;2289;48.316;15.174;2023-06-22T10:13:08;6.47;;;5.27;;
4553;SDS011;2289;48.316;15.174;2023-06-22T10:15:38;13.43;;;6.23;;
4553;SDS011;2289;48.316;15.174;2023-06-22T10:18:18;12.90;;;6.17;;
4553;SDS011;2289;48.316;15.174;2023-06-22T10:20:48;12.30;;;6.33;;
4553;SDS011;2289;48.316;15.174;2023-06-22T10:23:18;8.10;;;6.63;;
4553;SDS011;2289;48.316;15.174;2023-06-22T10:25:47;8.50;;;5.93;;
4553;SDS011;2289;48.316;15.174;2023-06-22T10:28:17;8.40;;;5.90;;
4553;SDS011;2289;48.316;15.174;2023-06-22T10:30:46;9.93;;;6.60;;
4553;SDS011;2289;48.316;15.174;2023-06-22T10:33:14;12.77;;;6.70;;
4553;SDS011;2289;48.316;15.174;2023-06-22T10:35:45;12.57;;;6.93;;
4553;SDS011;2289;48.316;15.174;2023-06-22T10:38:14;11.07;;;6.17;;
4553;SDS011;2289;48.316;15.174;2023-06-22T10:40:43;7.77;;;5.63;;
4553;SDS011;2289;48.316;15.174;2023-06-22T10:43:12;12.60;;;6.20;;
4553;SDS011;2289;48.316;15.174;2023-06-22T10:45:41;14.40;;;6.60;;
4553;SDS011;2289;48.316;15.174;2023-06-22T10:48:12;11.10;;;6.20;;
4553;SDS011;2289;48.316;15.174;2023-06-22T10:50:41;11.53;;;6.30;;
4553;SDS011;2289;48.316;15.174;2023-06-22T10:53:11;11.83;;;5.53;;
4553;SDS011;2289;48.316;15.174;2023-06-22T10:55:40;8.73;;;6.07;;
4553;SDS011;2289;48.316;15.174;2023-06-22T10:58:22;13.77;;;5.27;;
4553;SDS011;2289;48.316;15.174;2023-06-22T11:00:52;9.33;;;6.40;;
4553;SDS011;2289;48.316;15.174;2023-06-22T11:03:21;9.47;;;5.63;;
4553;SDS011;2289;48.316;15.174;2023-06-22T11:05:50;8.50;;;6.20;;
4553;SDS011;2289;48.316;15.174;2023-06-22T11:08:20;10.50;;;6.00;;
4553;SDS011;2289;48.316;15.174;2023-06-22T11:10:50;14.37;;;8.23;;
4553;SDS011;2289;48.316;15.174;2023-06-22T11:13:20;11.63;;;6.30;;
4553;SDS011;2289;48.316;15.174;2023-06-22T11:15:49;12.13;;;6.50;;
4553;SDS011;2289;48.316;15.174;2023-06-22T11:18:18;7.83;;;6.53;;
4553;SDS011;2289;48.316;15.174;2023-06-22T11:20:47;11.80;;;7.00;;
4553;SDS011;2289;48.316;15.174;2023-06-22T11:23:20;10.27;;;7.10;;
4553;SDS011;2289;48.316;15.174;2023-06-22T11:25:49;12.03;;;6.90;;
4553;SDS011;2289;48.316;15.174;2023-06-22T11:28:19;12.00;;;7.30;;
4553;SDS011;2289;48.316;15.174;2023-06-22T11:30:48;9.27;;;6.90;;
4553;SDS011;2289;48.316;15.174;2023-06-22T11:33:17;10.30;;;6.47;;
4553;SDS011;2289;48.316;15.174;2023-06-22T11:35:55;16.70;;;6.63;;
4553;SDS011;2289;48.316;15.174;2023-06-22T11:38:34;13.20;;;7.87;;
4553;SDS011;2289;48.316;15.174;2023-06-22T11:41:08;8.90;;;6.57;;
4553;SDS011;2289;48.316;15.174;2023-06-22T11:43:45;14.20;;;6.73;;
4553;SDS011;2289;48.316;15.174;2023-06-22T11:46:23;12.30;;;6.60;;
4553;SDS011;2289;48.316;15.174;2023-06-22T11:48:59;13.53;;;6.77;;
4553;SDS011;2289;48.316;15.174;2023-06-22T11:51:34;15.57;;;6.67;;
4553;SDS011;2289;48.316;15.174;2023-06-22T11:54:09;16.43;;;7.13;;
4553;SDS011;2289;48.316;15.174;2023-06-22T11:56:39;9.53;;;6.97;;
4553;SDS011;2289;48.316;15.174;2023-06-22T11:59:08;9.10;;;6.53;;
4553;SDS011;2289;48.316;15.174;2023-06-22T12:01:37;9.27;;;6.40;;
4553;SDS011;2289;48.316;15.174;2023-06-22T12:04:07;10.50;;;7.10;;
4553;SDS011;2289;48.316;15.174;2023-06-22T12:06:38;12.97;;;6.17;;
4553;SDS011;2289;48.316;15.174;2023-06-22T12:09:10;12.70;;;6.20;;
4553;SDS011;2289;48.316;15.174;2023-06-22T12:11:40;9.60;;;6.70;;
4553;SDS011;2289;48.316;15.174;2023-06-22T12:14:09;13.17;;;7.30;;
4553;SDS011;2289;48.316;15.174;2023-06-22T12:16:38;18.00;;;7.03;;
4553;SDS011;2289;48.316;15.174;2023-06-22T12:19:07;14.47;;;7.77;;
4553;SDS011;2289;48.316;15.174;2023-06-22T12:21:36;10.80;;;6.53;;
4553;SDS011;2289;48.316;15.174;2023-06-22T12:24:06;10.97;;;7.10;;
4553;SDS011;2289;48.316;15.174;2023-06-22T12:26:36;11.57;;;7.40;;
4553;SDS011;2289;48.316;15.174;2023-06-22T12:29:05;14.60;;;7.60;;
4553;SDS011;2289;48.316;15.174;2023-06-22T12:31:34;9.40;;;7.17;;
4553;SDS011;2289;48.316;15.174;2023-06-22T12:34:04;10.30;;;7.33;;
4553;SDS011;2289;48.316;15.174;2023-06-22T12:36:32;14.00;;;7.60;;
4553;SDS011;2289;48.316;15.174;2023-06-22T12:39:02;14.20;;;7.77;;
4553;SDS011;2289;48.316;15.174;2023-06-22T12:41:31;12.00;;;7.53;;
4553;SDS011;2289;48.316;15.174;2023-06-22T12:44:01;11.50;;;7.53;;
4553;SDS011;2289;48.316;15.174;2023-06-22T12:46:30;13.30;;;8.00;;
4553;SDS011;2289;48.316;15.174;2023-06-22T12:49:05;13.67;;;8.50;;
4553;SDS011;2289;48.316;15.174;2023-06-22T12:51:39;12.83;;;8.07;;
4553;SDS011;2289;48.316;15.174;2023-06-22T12:54:08;10.10;;;7.53;;
4553;SDS011;2289;48.316;15.174;2023-06-22T12:56:37;17.30;;;7.27;;
4553;SDS011;2289;48.316;15.174;2023-06-22T12:59:08;15.03;;;7.93;;
4553;SDS011;2289;48.316;15.174;2023-06-22T13:01:38;15.80;;;8.37;;
4553;SDS011;2289;48.316;15.174;2023-06-22T13:04:07;14.57;;;7.90;;
4553;SDS011;2289;48.316;15.174;2023-06-22T13:06:38;12.17;;;7.97;;
4553;SDS011;2289;48.316;15.174;2023-06-22T13:09:06;12.37;;;10.30;;
4553;SDS011;2289;48.316;15.174;2023-06-22T13:11:47;13.40;;;8.20;;
4553;SDS011;2289;48.316;15.174;2023-06-22T13:14:17;12.10;;;7.80;;
4553;SDS011;2289;48.316;15.174;2023-06-22T13:16:46;14.77;;;8.67;;
4553;SDS011;2289;48.316;15.174;2023-06-22T13:19:15;12.60;;;8.10;;
4553;SDS011;2289;48.316;15.174;2023-06-22T13:21:44;12.87;;;8.67;;
4553;SDS011;2289;48.316;15.174;2023-06-22T13:24:13;14.00;;;10.30;;
4553;SDS011;2289;48.316;15.174;2023-06-22T13:26:41;13.67;;;8.80;;
4553;SDS011;2289;48.316;15.174;2023-06-22T13:29:10;20.73;;;10.10;;
4553;SDS011;2289;48.316;15.174;2023-06-22T13:31:41;15.70;;;9.00;;
4553;SDS011;2289;48.316;15.174;2023-06-22T13:34:10;11.63;;;8.80;;
4553;SDS011;2289;48.316;15.174;2023-06-22T13:36:39;12.00;;;9.03;;
4553;SDS011;2289;48.316;15.174;2023-06-22T13:39:08;13.40;;;9.57;;
4553;SDS011;2289;48.316;15.174;2023-06-22T13:41:37;12.80;;;8.30;;
4553;SDS011;2289;48.316;15.174;2023-06-22T13:44:06;13.73;;;8.47;;
4553;SDS011;2289;48.316;15.174;2023-06-22T13:46:35;11.47;;;8.10;;
4553;SDS011;2289;48.316;15.174;2023-06-22T13:49:05;12.90;;;9.40;;
4553;SDS011;2289;48.316;15.174;2023-06-22T13:51:34;15.80;;;8.70;;
4553;SDS011;2289;48.316;15.174;2023-06-22T13:54:04;15.27;;;8.13;;
4553;SDS011;2289;48.316;15.174;2023-06-22T13:56:53;14.10;;;8.93;;
4553;SDS011;2289;48.316;15.174;2023-06-22T13:59:23;15.97;;;9.27;;
4553;SDS011;2289;48.316;15.174;2023-06-22T14:01:53;12.70;;;8.20;;
4553;SDS011;2289;48.316;15.174;2023-06-22T14:04:24;16.07;;;9.07;;
4553;SDS011;2289;48.316;15.174;2023-06-22T14:06:53;12.97;;;8.70;;
4553;SDS011;2289;48.316;15.174;2023-06-22T14:09:23;14.50;;;9.50;;
4553;SDS011;2289;48.316;15.174;2023-06-22T14:11:54;11.33;;;9.17;;
4553;SDS011;2289;48.316;15.174;2023-06-22T14:14:24;18.93;;;10.37;;
4553;SDS011;2289;48.316;15.174;2023-06-22T14:16:53;12.73;;;8.40;;
4553;SDS011;2289;48.316;15.174;2023-06-22T14:19:24;14.70;;;9.90;;
4553;SDS011;2289;48.316;15.174;2023-06-22T14:21:53;12.63;;;8.90;;
4553;SDS011;2289;48.316;15.174;2023-06-22T14:24:21;13.20;;;8.53;;
4553;SDS011;2289;48.316;15.174;2023-06-22T14:26:53;16.63;;;9.60;;
4553;SDS011;2289;48.316;15.174;2023-06-22T14:29:22;13.60;;;9.23;;
4553;SDS011;2289;48.316;15.174;2023-06-22T14:31:51;17.40;;;9.40;;
4553;SDS011;2289;48.316;15.174;2023-06-22T14:34:20;18.30;;;10.77;;
4553;SDS011;2289;48.316;15.174;2023-06-22T14:36:51;15.17;;;9.07;;
4553;SDS011;2289;48.316;15.174;2023-06-22T14:39:21;14.67;;;8.10;;
4553;SDS011;2289;48.316;15.174;2023-06-22T14:41:50;11.20;;;8.20;;
4553;SDS011;2289;48.316;15.174;2023-06-22T14:44:19;17.60;;;10.50;;
4553;SDS011;2289;48.316;15.174;2023-06-22T14:46:47;14.27;;;9.03;;
4553;SDS011;2289;48.316;15.174;2023-06-22T14:49:16;16.37;;;8.93;;
4553;SDS011;2289;48.316;15.174;2023-06-22T14:51:46;10.50;;;8.10;;
4553;SDS011;2289;48.316;15.174;2023-06-22T14:54:17;10.93;;;8.30;;
4553;SDS011;2289;48.316;15.174;2023-06-22T14:56:47;11.10;;;8.87;;
4553;SDS011;2289;48.316;15.174;2023-06-22T14:59:16;9.47;;;7.30;;
4553;SDS011;2289;48.316;15.174;2023-06-22T15:01:45;10.23;;;7.60;;
4553;SDS011;2289;48.316;15.174;2023-06-22T15:04:14;12.53;;;8.90;;
4553;SDS011;2289;48.316;15.174;2023-06-22T15:06:44;14.97;;;8.17;;
4553;SDS011;2289;48.316;15.174;2023-06-22T15:09:12;10.50;;;7.67;;
4553;SDS011;2289;48.316;15.174;2023-06-22T15:11:43;14.17;;;8.13;;
4553;SDS011;2289;48.316;15.174;2023-06-22T15:14:13;10.60;;;8.10;;
4553;SDS011;2289;48.316;15.174;2023-06-22T15:16:42;13.60;;;8.10;;